Time;durP1;ratioP1;P1;durP2;ratioP2;P2;SDS_P1;SDS_P2;PMS_P1;PMS_P2;Temp;Humidity;BMP_temperature;BMP_pressure;BME280_temperature;BME280_humidity;BME280_pressure;Samples;Min_cycle;Max_cycle;Signal;HPM_P1;HPM_P2
2021/06/29 00:00:12;;;;;;;10.73;9.63;;;23.30;99.90;;;;;;2089767;28;20017;-68
2021/06/29 00:01:13;;;;;;;11.13;10.02;;;23.30;99.90;;;;;;2089962;28;20059;-68
2021/06/29 00:02:13;;;;;;;11.20;8.18;;;23.30;99.90;;;;;;2089120;28;20134;-68
2021/06/29 00:03:16;;;;;;;9.48;8.57;;;23.30;99.90;;;;;;2089549;28;20376;-68
2021/06/29 00:04:17;;;;;;;10.32;9.32;;;23.30;99.90;;;;;;2089979;28;20017;-68
2021/06/29 00:05:17;;;;;;;9.80;8.90;;;23.30;99.90;;;;;;2089048;28;20532;-68
2021/06/29 00:06:18;;;;;;;10.73;9.38;;;23.30;99.90;;;;;;2089233;28;20217;-68
2021/06/29 00:07:19;;;;;;;9.73;8.73;;;23.20;99.90;;;;;;2088870;28;20484;-68
2021/06/29 00:08:19;;;;;;;11.73;10.73;;;23.30;99.90;;;;;;2089891;28;20017;-68
2021/06/29 00:09:20;;;;;;;11.05;8.60;;;23.30;99.90;;;;;;2089979;28;20021;-68
2021/06/29 00:10:22;;;;;;;11.55;10.07;;;23.30;99.90;;;;;;2089718;28;20028;-68
2021/06/29 00:11:23;;;;;;;12.32;10.88;;;23.30;99.90;;;;;;2089316;28;20110;-68
2021/06/29 00:12:24;;;;;;;11.57;10.48;;;23.20;99.90;;;;;;2089407;28;20025;-68
2021/06/29 00:13:24;;;;;;;10.60;9.52;;;23.20;99.90;;;;;;2089428;28;20025;-68
2021/06/29 00:14:25;;;;;;;13.10;10.52;;;23.20;99.90;;;;;;2089786;28;20163;-68
2021/06/29 00:15:28;;;;;;;11.85;10.85;;;23.20;99.90;;;;;;2089555;28;20120;-68
2021/06/29 00:16:28;;;;;;;12.05;10.95;;;23.20;99.90;;;;;;2089844;28;20021;-68
2021/06/29 00:17:29;;;;;;;12.32;11.13;;;23.20;99.90;;;;;;2089655;28;20051;-68
2021/06/29 00:18:30;;;;;;;12.90;11.60;;;23.20;99.90;;;;;;2089697;28;20107;-68
2021/06/29 00:19:30;;;;;;;10.13;9.13;;;23.20;99.90;;;;;;2089545;28;20067;-68
2021/06/29 00:20:32;;;;;;;13.65;9.85;;;23.20;99.90;;;;;;2089957;28;20025;-68
2021/06/29 00:21:32;;;;;;;10.52;9.52;;;23.20;99.90;;;;;;2088971;28;20384;-68
2021/06/29 00:22:33;;;;;;;11.95;10.85;;;23.20;99.90;;;;;;2089764;28;20033;-68
2021/06/29 00:23:38;;;;;;;9.98;8.98;;;23.20;99.90;;;;;;2089637;28;20020;-68
2021/06/29 00:24:38;;;;;;;10.75;9.70;;;23.20;99.90;;;;;;2089488;28;20024;-68
2021/06/29 00:25:39;;;;;;;9.23;8.43;;;23.20;99.90;;;;;;2089535;28;20029;-68
2021/06/29 00:26:40;;;;;;;10.00;9.10;;;23.10;99.90;;;;;;2089572;28;20111;-68
2021/06/29 00:27:41;;;;;;;11.15;9.95;;;23.10;99.90;;;;;;2096599;28;20059;-68
2021/06/29 00:28:42;;;;;;;10.20;9.25;;;23.10;99.90;;;;;;2097263;28;20138;-68
2021/06/29 00:29:42;;;;;;;12.07;10.85;;;23.10;99.90;;;;;;2089578;28;20044;-68
2021/06/29 00:30:43;;;;;;;13.23;11.80;;;23.10;99.90;;;;;;2089914;28;20059;-68
2021/06/29 00:31:43;;;;;;;10.95;9.82;;;23.10;99.90;;;;;;2088954;28;20448;-68
2021/06/29 00:32:44;;;;;;;13.00;11.70;;;23.10;99.90;;;;;;2089476;28;20028;-68
2021/06/29 00:33:45;;;;;;;12.32;11.15;;;23.10;99.90;;;;;;2089767;28;20432;-68
2021/06/29 00:34:46;;;;;;;12.07;11.07;;;23.10;99.90;;;;;;2089031;28;20029;-68
2021/06/29 00:35:46;;;;;;;9.45;8.52;;;23.10;99.90;;;;;;2089722;28;20055;-68
2021/06/29 00:36:47;;;;;;;10.20;9.13;;;23.10;99.90;;;;;;2089444;28;20100;-68
2021/06/29 00:37:47;;;;;;;11.13;10.23;;;23.00;99.90;;;;;;2089611;28;20050;-68
2021/06/29 00:38:48;;;;;;;10.27;9.25;;;23.00;99.90;;;;;;2089577;28;20529;-68
2021/06/29 00:39:49;;;;;;;9.23;8.52;;;23.00;99.90;;;;;;2089506;28;20059;-68
2021/06/29 00:40:51;;;;;;;12.68;11.45;;;23.00;99.90;;;;;;2089310;28;20025;-68
2021/06/29 00:41:51;;;;;;;12.13;10.52;;;23.00;99.90;;;;;;2088358;28;20559;-68
2021/06/29 00:42:52;;;;;;;12.25;10.98;;;23.00;99.90;;;;;;2089307;28;20033;-68
2021/06/29 00:43:53;;;;;;;9.88;9.05;;;23.00;99.90;;;;;;2089662;28;20078;-68
2021/06/29 00:44:54;;;;;;;11.25;10.18;;;23.00;99.90;;;;;;2089285;28;20066;-68
2021/06/29 00:45:54;;;;;;;11.45;10.25;;;23.00;99.90;;;;;;2089377;28;20095;-68
2021/06/29 00:46:57;;;;;;;12.93;11.63;;;23.00;99.90;;;;;;2089441;28;20537;-68
2021/06/29 00:47:58;;;;;;;13.00;11.80;;;23.00;99.90;;;;;;2089719;28;20151;-68
2021/06/29 00:48:58;;;;;;;13.88;12.55;;;23.00;99.90;;;;;;2089292;28;20115;-68
2021/06/29 00:49:59;;;;;;;14.85;13.32;;;23.00;99.90;;;;;;2089599;28;20021;-68
2021/06/29 00:51:00;;;;;;;14.77;13.38;;;22.90;99.90;;;;;;2089273;28;20029;-68
2021/06/29 00:52:00;;;;;;;12.50;11.40;;;22.90;99.90;;;;;;2088848;28;20045;-68
2021/06/29 00:53:01;;;;;;;13.27;12.00;;;22.90;99.90;;;;;;2089458;28;20025;-68
2021/06/29 00:54:02;;;;;;;13.75;12.35;;;22.90;99.90;;;;;;2089372;28;20646;-68
2021/06/29 00:55:03;;;;;;;11.65;10.63;;;22.90;99.90;;;;;;2089414;28;20112;-68
2021/06/29 00:56:06;;;;;;;11.95;10.93;;;22.90;99.90;;;;;;2089570;28;20025;-68
2021/06/29 00:57:09;;;;;;;14.23;12.90;;;22.90;99.90;;;;;;2089175;28;20017;-68
2021/06/29 00:58:11;;;;;;;12.65;11.45;;;22.90;99.90;;;;;;2089482;28;20027;-68
2021/06/29 00:59:12;;;;;;;9.95;8.98;;;22.90;99.90;;;;;;2089297;28;20036;-68
2021/06/29 01:00:13;;;;;;;12.48;11.30;;;22.90;99.90;;;;;;2089358;28;20104;-68
2021/06/29 01:01:14;;;;;;;12.07;10.98;;;22.90;99.90;;;;;;2089293;28;20439;-68
2021/06/29 01:02:15;;;;;;;11.82;10.70;;;22.90;99.90;;;;;;2088813;28;20354;-68
2021/06/29 01:03:15;;;;;;;11.20;9.18;;;22.90;99.90;;;;;;2089038;28;20041;-68
2021/06/29 01:04:16;;;;;;;10.40;9.50;;;22.90;99.90;;;;;;2089550;28;20025;-68
2021/06/29 01:05:16;;;;;;;13.88;12.38;;;22.90;99.90;;;;;;2088421;28;20052;-68
2021/06/29 01:06:17;;;;;;;12.75;11.55;;;22.90;99.90;;;;;;2088945;28;20561;-68
2021/06/29 01:07:17;;;;;;;13.25;12.10;;;22.90;99.90;;;;;;2089163;28;20108;-68
2021/06/29 01:08:19;;;;;;;14.13;12.93;;;22.90;99.90;;;;;;2089329;28;20452;-68
2021/06/29 01:09:20;;;;;;;14.10;12.65;;;22.80;99.90;;;;;;2089190;28;20037;-68
2021/06/29 01:10:22;;;;;;;14.25;12.95;;;22.80;99.90;;;;;;2089272;28;20118;-68
2021/06/29 01:11:23;;;;;;;14.98;13.38;;;22.80;99.90;;;;;;2089347;28;20356;-68
2021/06/29 01:12:33;;;;;;;12.05;10.63;;;22.80;99.90;;;;;;2089018;28;20025;-68
2021/06/29 01:13:41;;;;;;;14.15;12.95;;;22.80;99.90;;;;;;2086691;28;20017;-68
2021/06/29 01:14:41;;;;;;;16.83;12.90;;;22.80;99.90;;;;;;2089280;28;20402;-68
2021/06/29 01:15:42;;;;;;;13.05;11.85;;;22.70;99.90;;;;;;2089386;28;20088;-68
2021/06/29 01:16:45;;;;;;;11.23;10.23;;;22.70;99.90;;;;;;2089282;28;20017;-68
2021/06/29 01:17:46;;;;;;;12.25;11.05;;;22.70;99.90;;;;;;2089220;28;20032;-68
2021/06/29 01:18:47;;;;;;;13.18;11.23;;;22.70;99.90;;;;;;2089284;28;20052;-68
2021/06/29 01:19:49;;;;;;;12.20;11.13;;;22.70;99.90;;;;;;2089256;28;20025;-68
2021/06/29 01:20:50;;;;;;;14.10;12.65;;;22.70;99.90;;;;;;2089549;28;20025;-68
2021/06/29 01:21:53;;;;;;;13.90;12.50;;;22.70;99.90;;;;;;2088651;28;20104;-68
2021/06/29 01:23:03;;;;;;;13.43;11.98;;;22.70;99.90;;;;;;2089417;28;20443;-68
2021/06/29 01:24:09;;;;;;;12.95;11.75;;;22.70;99.90;;;;;;2089280;28;20048;-68
2021/06/29 01:25:11;;;;;;;12.45;11.32;;;22.60;99.90;;;;;;2089240;28;20403;-68
2021/06/29 01:26:25;;;;;;;12.18;11.00;;;22.60;99.90;;;;;;2089309;28;20040;-68
2021/06/29 01:29:07;;;;;;;11.32;10.32;;;22.60;99.90;;;;;;2089394;28;20029;-68
2021/06/29 01:31:16;;;;;;;13.10;10.68;;;22.50;99.90;;;;;;2089432;28;20407;-68
2021/06/29 01:32:18;;;;;;;11.43;10.32;;;22.50;99.90;;;;;;2088772;28;20033;-68
2021/06/29 01:33:20;;;;;;;12.20;10.43;;;22.50;99.90;;;;;;2089378;28;20017;-68
2021/06/29 01:34:20;;;;;;;11.20;10.10;;;22.50;99.90;;;;;;2089247;28;20021;-68
2021/06/29 01:35:21;;;;;;;10.65;9.65;;;22.50;99.90;;;;;;2089116;28;20476;-68
2021/06/29 01:36:23;;;;;;;10.93;9.60;;;22.40;99.90;;;;;;2088972;28;20111;-68
2021/06/29 01:37:24;;;;;;;9.98;9.07;;;22.40;99.90;;;;;;2089331;28;20021;-68
2021/06/29 01:38:25;;;;;;;10.90;9.77;;;22.40;99.90;;;;;;2089209;28;20532;-68
2021/06/29 01:39:26;;;;;;;10.23;9.15;;;22.40;99.90;;;;;;2089388;28;20104;-68
2021/06/29 01:40:30;;;;;;;10.77;9.68;;;22.50;99.90;;;;;;2089167;28;20120;-68
2021/06/29 01:41:30;;;;;;;11.32;9.95;;;22.40;99.90;;;;;;2088842;28;20029;-68
2021/06/29 01:42:31;;;;;;;9.93;8.90;;;22.40;99.90;;;;;;2089004;28;20021;-68
2021/06/29 01:43:38;;;;;;;9.75;8.98;;;22.40;99.90;;;;;;2089276;28;20021;-68
2021/06/29 01:44:39;;;;;;;9.73;8.80;;;22.50;99.90;;;;;;2089030;28;20028;-68
2021/06/29 01:45:42;;;;;;;9.88;8.63;;;22.40;99.90;;;;;;2089211;28;20046;-68
2021/06/29 01:46:46;;;;;;;11.18;8.80;;;22.40;99.90;;;;;;2088891;28;20369;-68
2021/06/29 01:48:52;;;;;;;9.45;8.45;;;22.40;99.90;;;;;;2088983;28;20116;-68
2021/06/29 01:49:53;;;;;;;9.68;8.82;;;22.40;99.90;;;;;;2089020;28;20021;-68
2021/06/29 01:50:56;;;;;;;9.88;8.98;;;22.40;99.90;;;;;;2089135;28;20027;-68
2021/06/29 01:51:57;;;;;;;7.93;7.22;;;22.40;99.90;;;;;;2088628;28;20025;-68
2021/06/29 01:52:59;;;;;;;8.80;7.70;;;22.40;99.90;;;;;;2089040;28;20021;-68
2021/06/29 01:54:00;;;;;;;10.18;8.68;;;22.40;99.90;;;;;;2093189;28;20085;-68
2021/06/29 01:55:01;;;;;;;9.40;8.57;;;22.40;99.90;;;;;;2099023;28;20024;-68
2021/06/29 01:56:01;;;;;;;9.35;8.45;;;22.40;99.90;;;;;;2093079;28;20104;-68
2021/06/29 01:57:02;;;;;;;9.65;8.57;;;22.50;99.90;;;;;;2090542;28;20024;-68
2021/06/29 01:58:03;;;;;;;9.35;8.48;;;22.50;99.90;;;;;;2090597;28;20017;-68
2021/06/29 01:59:09;;;;;;;9.75;8.73;;;22.50;99.90;;;;;;2090521;28;20021;-68
2021/06/29 02:00:11;;;;;;;9.00;8.10;;;22.50;99.90;;;;;;2090608;28;20071;-68
2021/06/29 02:01:11;;;;;;;11.13;8.38;;;22.50;99.90;;;;;;2090626;28;20472;-68
2021/06/29 02:02:12;;;;;;;9.27;8.18;;;22.50;99.90;;;;;;2090264;28;20642;-68
2021/06/29 02:03:13;;;;;;;9.45;8.50;;;22.40;99.90;;;;;;2090718;28;20013;-68
2021/06/29 02:04:13;;;;;;;9.05;8.25;;;22.40;99.90;;;;;;2090677;28;20033;-68
2021/06/29 02:05:14;;;;;;;9.25;7.93;;;22.40;99.90;;;;;;2090604;28;20120;-68
2021/06/29 02:06:16;;;;;;;9.80;8.95;;;22.40;99.90;;;;;;2090865;28;20048;-68
2021/06/29 02:07:16;;;;;;;9.20;8.30;;;22.40;99.90;;;;;;2090613;28;20025;-68
2021/06/29 02:08:18;;;;;;;8.90;8.10;;;22.40;99.90;;;;;;2090522;28;20119;-68
2021/06/29 02:09:19;;;;;;;10.63;7.43;;;22.40;99.90;;;;;;2090209;28;20357;-68
2021/06/29 02:10:19;;;;;;;9.73;8.70;;;22.40;99.90;;;;;;2090846;28;20052;-68
2021/06/29 02:11:20;;;;;;;9.48;7.95;;;22.40;99.90;;;;;;2090551;28;20036;-68
2021/06/29 02:12:20;;;;;;;8.63;7.10;;;22.40;99.90;;;;;;2090178;28;20025;-68
2021/06/29 02:13:21;;;;;;;8.98;8.07;;;22.40;99.90;;;;;;2090523;28;20108;-68
2021/06/29 02:14:22;;;;;;;9.13;8.32;;;22.40;99.90;;;;;;2090911;28;20511;-68
2021/06/29 02:15:22;;;;;;;10.68;8.82;;;22.40;99.90;;;;;;2090378;28;20530;-68
2021/06/29 02:16:23;;;;;;;8.60;7.82;;;22.40;99.90;;;;;;2090717;28;20032;-68
2021/06/29 02:17:23;;;;;;;8.95;8.05;;;22.40;99.90;;;;;;2090460;28;20532;-68
2021/06/29 02:18:24;;;;;;;9.10;7.90;;;22.50;99.90;;;;;;2090808;28;20032;-68
2021/06/29 02:19:24;;;;;;;10.80;9.32;;;22.50;99.90;;;;;;2090404;28;20021;-68
2021/06/29 02:20:25;;;;;;;9.35;8.20;;;22.50;99.90;;;;;;2090569;28;20040;-68
2021/06/29 02:21:26;;;;;;;8.80;7.95;;;22.50;99.90;;;;;;2090314;28;20476;-68
2021/06/29 02:22:26;;;;;;;10.75;8.02;;;22.50;99.90;;;;;;2090407;28;20097;-68
2021/06/29 02:23:27;;;;;;;9.93;8.90;;;22.50;99.90;;;;;;2090594;28;20025;-68
2021/06/29 02:24:28;;;;;;;10.13;9.00;;;22.50;99.90;;;;;;2090559;28;20547;-68
2021/06/29 02:25:29;;;;;;;7.93;7.22;;;22.50;99.90;;;;;;2090710;28;20074;-68
2021/06/29 02:26:29;;;;;;;9.43;8.20;;;22.50;99.90;;;;;;2090467;28;20032;-68
2021/06/29 02:27:30;;;;;;;8.48;7.68;;;22.50;99.90;;;;;;2090486;28;20468;-68
2021/06/29 02:28:31;;;;;;;9.65;8.20;;;22.50;99.90;;;;;;2090213;28;20025;-68
2021/06/29 02:29:31;;;;;;;10.95;8.52;;;22.50;99.90;;;;;;2090565;28;20059;-68
2021/06/29 02:30:32;;;;;;;12.35;8.60;;;22.50;99.90;;;;;;2090340;28;20021;-68
2021/06/29 02:31:32;;;;;;;9.68;8.48;;;22.50;99.90;;;;;;2090100;28;20586;-68
2021/06/29 02:32:33;;;;;;;8.52;7.70;;;22.60;99.90;;;;;;2090489;28;20055;-68
2021/06/29 02:33:34;;;;;;;8.88;7.70;;;22.50;99.90;;;;;;2090427;28;20017;-68
2021/06/29 02:34:34;;;;;;;8.32;7.53;;;22.50;99.90;;;;;;2090205;28;20072;-68
2021/06/29 02:35:36;;;;;;;15.98;8.02;;;22.60;99.90;;;;;;2090641;28;20104;-68
2021/06/29 02:36:36;;;;;;;9.02;7.50;;;22.60;99.90;;;;;;2090288;28;20063;-68
2021/06/29 02:37:37;;;;;;;11.05;8.20;;;22.60;99.90;;;;;;2090688;28;20106;-68
2021/06/29 02:38:38;;;;;;;8.85;7.85;;;22.50;99.90;;;;;;2090432;28;20074;-68
2021/06/29 02:39:38;;;;;;;9.95;7.93;;;22.50;99.90;;;;;;2090409;28;20021;-68
2021/06/29 02:40:39;;;;;;;12.18;8.05;;;22.50;99.90;;;;;;2090564;28;20371;-68
2021/06/29 02:41:40;;;;;;;8.93;7.97;;;22.50;99.90;;;;;;2089957;28;20108;-68
2021/06/29 02:42:40;;;;;;;8.48;7.65;;;22.50;99.90;;;;;;2090169;28;20365;-68
2021/06/29 02:43:42;;;;;;;10.95;8.55;;;22.50;99.90;;;;;;2090642;28;20024;-68
2021/06/29 02:44:43;;;;;;;9.10;8.20;;;22.50;99.90;;;;;;2089962;28;20546;-68
2021/06/29 02:45:44;;;;;;;8.75;8.05;;;22.50;99.90;;;;;;2090540;28;20356;-68
2021/06/29 02:46:44;;;;;;;8.27;7.57;;;22.50;99.90;;;;;;2090516;28;20129;-68
2021/06/29 02:47:46;;;;;;;8.98;8.00;;;22.50;99.90;;;;;;2090699;28;20021;-68
2021/06/29 02:48:46;;;;;;;8.82;8.02;;;22.50;99.90;;;;;;2089920;28;20326;-68
2021/06/29 02:49:47;;;;;;;9.02;8.23;;;22.50;99.90;;;;;;2090499;28;20025;-68
2021/06/29 02:50:47;;;;;;;9.20;8.30;;;22.50;99.90;;;;;;2090326;28;20100;-68
2021/06/29 02:51:48;;;;;;;8.40;7.60;;;22.50;99.90;;;;;;2089960;28;20024;-68
2021/06/29 02:52:48;;;;;;;8.18;7.47;;;22.50;99.90;;;;;;2090226;28;20055;-68
2021/06/29 02:53:49;;;;;;;7.50;6.80;;;22.50;99.90;;;;;;2090479;28;20680;-68
2021/06/29 02:54:50;;;;;;;8.50;7.80;;;22.50;99.90;;;;;;2090195;28;20519;-68
2021/06/29 02:55:50;;;;;;;11.50;8.13;;;22.50;99.90;;;;;;2090287;28;20021;-68
2021/06/29 02:56:51;;;;;;;7.75;7.05;;;22.50;99.90;;;;;;2090139;28;20025;-68
2021/06/29 02:57:51;;;;;;;8.55;7.85;;;22.50;99.90;;;;;;2090520;28;20395;-68
2021/06/29 02:58:52;;;;;;;7.97;7.20;;;22.50;99.90;;;;;;2090284;28;20431;-68
2021/06/29 02:59:53;;;;;;;8.30;7.47;;;22.50;99.90;;;;;;2090307;28;20039;-68
2021/06/29 03:00:54;;;;;;;7.43;6.93;;;22.50;99.90;;;;;;2090166;28;20530;-68
2021/06/29 03:01:54;;;;;;;10.52;7.60;;;22.50;99.90;;;;;;2086540;28;20445;-68
2021/06/29 03:02:55;;;;;;;8.18;7.55;;;22.40;99.90;;;;;;2082208;28;20079;-68
2021/06/29 03:03:55;;;;;;;14.10;8.15;;;22.40;99.90;;;;;;2094993;28;20115;-68
2021/06/29 03:04:56;;;;;;;8.35;7.65;;;22.40;99.90;;;;;;2097694;28;20032;-68
2021/06/29 03:05:56;;;;;;;8.95;8.10;;;22.40;99.90;;;;;;2098593;28;20033;-68
2021/06/29 03:06:57;;;;;;;9.75;7.78;;;22.40;99.90;;;;;;2098628;28;20532;-68
2021/06/29 03:07:58;;;;;;;7.72;7.03;;;22.40;99.90;;;;;;2098235;28;20081;-68
2021/06/29 03:09:03;;;;;;;6.80;6.20;;;22.40;99.90;;;;;;2098532;28;20140;-68
2021/06/29 03:10:05;;;;;;;8.57;7.05;;;22.40;99.90;;;;;;2098507;28;20029;-68
2021/06/29 03:11:05;;;;;;;8.02;7.32;;;22.30;99.90;;;;;;2098671;28;20085;-68
2021/06/29 03:12:07;;;;;;;8.70;7.82;;;22.30;99.90;;;;;;2097753;28;20472;-68
2021/06/29 03:13:07;;;;;;;7.82;7.03;;;22.30;99.90;;;;;;2094928;28;20109;-68
2021/06/29 03:14:08;;;;;;;7.80;7.20;;;22.30;99.90;;;;;;2097950;28;20017;-68
2021/06/29 03:15:10;;;;;;;9.77;8.25;;;22.30;99.90;;;;;;2090526;28;20021;-68
2021/06/29 03:16:11;;;;;;;7.40;6.72;;;22.30;99.90;;;;;;2097758;28;20099;-68
2021/06/29 03:17:12;;;;;;;7.25;6.65;;;22.30;99.90;;;;;;2090378;28;20032;-68
2021/06/29 03:18:12;;;;;;;7.75;6.35;;;22.30;99.90;;;;;;2090184;28;20476;-68
2021/06/29 03:19:13;;;;;;;7.97;7.22;;;22.20;99.90;;;;;;2090265;28;20044;-68
2021/06/29 03:20:13;;;;;;;7.18;6.50;;;22.20;99.90;;;;;;2089994;28;20478;-68
2021/06/29 03:21:14;;;;;;;6.57;5.97;;;22.20;99.90;;;;;;2090258;28;20032;-68
2021/06/29 03:22:14;;;;;;;8.43;7.15;;;22.20;99.90;;;;;;2089549;28;20029;-68
2021/06/29 03:23:15;;;;;;;8.23;6.88;;;22.20;99.90;;;;;;2094069;28;20110;-68
2021/06/29 03:24:16;;;;;;;7.97;7.18;;;22.20;99.90;;;;;;2096906;28;20033;-68
2021/06/29 03:25:16;;;;;;;7.63;7.03;;;22.10;99.90;;;;;;2091677;28;20028;-68
2021/06/29 03:26:17;;;;;;;8.32;7.63;;;22.10;99.90;;;;;;2094299;28;20037;-68
2021/06/29 03:27:18;;;;;;;8.63;6.82;;;22.10;99.90;;;;;;2090120;28;20538;-68
2021/06/29 03:28:19;;;;;;;8.35;7.65;;;22.10;99.90;;;;;;2089923;28;20028;-68
2021/06/29 03:29:20;;;;;;;9.57;7.35;;;22.10;99.90;;;;;;2090295;28;20049;-68
2021/06/29 03:30:21;;;;;;;7.43;6.72;;;22.10;99.90;;;;;;2089840;28;20090;-68
2021/06/29 03:31:22;;;;;;;7.40;6.65;;;22.10;99.90;;;;;;2089919;28;20025;-68
2021/06/29 03:32:22;;;;;;;6.88;6.38;;;22.00;99.90;;;;;;2089371;28;20021;-68
2021/06/29 03:33:23;;;;;;;10.25;7.22;;;22.00;99.90;;;;;;2089547;28;20025;-68
2021/06/29 03:34:23;;;;;;;7.53;6.82;;;22.00;99.90;;;;;;2089258;28;20025;-68
2021/06/29 03:35:24;;;;;;;7.97;6.43;;;22.00;99.90;;;;;;2090007;28;20096;-68
2021/06/29 03:36:25;;;;;;;7.00;6.40;;;22.00;99.90;;;;;;2089829;28;20028;-68
2021/06/29 03:37:25;;;;;;;9.00;8.20;;;22.00;99.90;;;;;;2090025;28;20075;-68
2021/06/29 03:38:26;;;;;;;8.77;7.43;;;22.00;99.90;;;;;;2090079;28;20025;-68
2021/06/29 03:39:27;;;;;;;8.35;7.28;;;21.90;99.90;;;;;;2089978;28;20033;-68
2021/06/29 03:40:27;;;;;;;11.75;8.02;;;21.90;99.90;;;;;;2090072;28;20029;-68
2021/06/29 03:41:28;;;;;;;7.40;6.80;;;21.90;99.90;;;;;;2089678;28;20144;-68
2021/06/29 03:42:28;;;;;;;8.00;7.30;;;21.90;99.90;;;;;;2089840;28;20021;-68
2021/06/29 03:43:33;;;;;;;8.15;7.32;;;21.90;99.90;;;;;;2089686;28;20021;-68
2021/06/29 03:44:34;;;;;;;8.57;6.80;;;21.90;99.90;;;;;;2089781;28;20032;-68
2021/06/29 03:45:35;;;;;;;8.32;7.50;;;21.90;99.90;;;;;;2097332;28;20023;-68
2021/06/29 03:46:35;;;;;;;6.97;6.18;;;21.80;99.90;;;;;;2097689;28;20056;-68
2021/06/29 03:47:36;;;;;;;7.25;6.55;;;21.80;99.90;;;;;;2089722;28;20028;-68
2021/06/29 03:48:36;;;;;;;7.07;6.53;;;21.80;99.90;;;;;;2097654;28;20025;-68
2021/06/29 03:49:37;;;;;;;7.88;6.85;;;21.80;99.90;;;;;;2097513;28;20021;-68
2021/06/29 03:50:38;;;;;;;7.38;6.80;;;21.80;99.90;;;;;;2089933;28;20372;-68
2021/06/29 03:51:38;;;;;;;9.82;6.57;;;21.80;99.90;;;;;;2089367;28;20032;-68
2021/06/29 03:52:39;;;;;;;7.45;5.93;;;21.80;99.90;;;;;;2089902;28;20021;-68
2021/06/29 03:53:39;;;;;;;7.10;6.50;;;21.80;99.90;;;;;;2089607;28;20029;-68
2021/06/29 03:54:40;;;;;;;8.45;6.85;;;21.70;99.90;;;;;;2090018;28;20480;-68
2021/06/29 03:55:40;;;;;;;6.90;6.30;;;21.80;99.90;;;;;;2089536;28;20110;-68
2021/06/29 03:56:41;;;;;;;7.65;6.85;;;21.70;99.90;;;;;;2089924;28;20028;-68
2021/06/29 03:57:42;;;;;;;7.78;7.07;;;21.70;99.90;;;;;;2097341;28;20048;-68
2021/06/29 03:58:42;;;;;;;8.48;7.60;;;21.70;99.90;;;;;;2097753;28;20024;-68
2021/06/29 03:59:43;;;;;;;10.05;7.07;;;21.70;99.90;;;;;;2089963;28;20424;-68
2021/06/29 04:00:43;;;;;;;9.45;7.97;;;21.70;99.90;;;;;;2089897;28;20025;-68
2021/06/29 04:01:46;;;;;;;9.45;7.93;;;21.70;99.90;;;;;;2089021;28;20136;-68
2021/06/29 04:02:46;;;;;;;7.63;6.78;;;21.60;99.90;;;;;;2090026;28;20463;-69
2021/06/29 04:03:48;;;;;;;7.65;7.05;;;21.60;99.90;;;;;;2089723;28;20087;-68
2021/06/29 04:04:48;;;;;;;8.60;7.70;;;21.60;99.90;;;;;;2097338;28;20017;-68
2021/06/29 04:05:49;;;;;;;6.32;5.82;;;21.60;99.90;;;;;;2097293;28;20027;-68
2021/06/29 04:06:49;;;;;;;9.70;7.07;;;21.60;99.90;;;;;;2089866;28;20064;-68
2021/06/29 04:07:50;;;;;;;8.65;6.68;;;21.60;99.90;;;;;;2089524;28;20486;-68
2021/06/29 04:08:52;;;;;;;6.45;5.95;;;21.60;99.90;;;;;;2089188;28;20048;-68
2021/06/29 04:09:53;;;;;;;8.05;7.32;;;21.60;99.90;;;;;;2089190;28;20079;-68
2021/06/29 04:10:53;;;;;;;6.82;6.20;;;21.60;99.90;;;;;;2089940;28;20067;-68
2021/06/29 04:11:54;;;;;;;8.15;7.32;;;21.60;99.90;;;;;;2089021;28;20055;-68
2021/06/29 04:12:54;;;;;;;6.95;6.03;;;21.60;99.90;;;;;;2089682;28;20029;-68
2021/06/29 04:13:56;;;;;;;7.10;6.55;;;21.60;99.90;;;;;;2089705;28;20057;-68
2021/06/29 04:14:57;;;;;;;8.25;7.55;;;21.60;99.90;;;;;;2094303;28;20439;-68
2021/06/29 04:15:57;;;;;;;8.05;7.35;;;21.50;99.90;;;;;;2088716;28;20013;-68
2021/06/29 04:16:58;;;;;;;8.02;7.22;;;21.50;99.90;;;;;;2089163;28;20071;-68
2021/06/29 04:17:59;;;;;;;7.97;6.88;;;21.50;99.90;;;;;;2089765;28;20056;-68
2021/06/29 04:18:59;;;;;;;7.93;7.13;;;21.60;99.90;;;;;;2089659;28;20029;-68
2021/06/29 04:20:00;;;;;;;6.80;6.00;;;21.60;99.90;;;;;;2089668;28;20040;-68
2021/06/29 04:21:00;;;;;;;7.72;7.00;;;21.70;99.90;;;;;;2089664;28;20458;-68
2021/06/29 04:22:01;;;;;;;7.93;6.95;;;21.90;99.90;;;;;;2088970;28;20115;-68
2021/06/29 04:23:01;;;;;;;7.70;6.90;;;22.00;99.90;;;;;;2089339;28;20025;-68
2021/06/29 04:24:05;;;;;;;9.50;7.05;;;22.20;99.90;;;;;;2089740;28;20570;-68
2021/06/29 04:25:08;;;;;;;7.15;6.53;;;22.30;99.90;;;;;;2089553;28;20033;-68
2021/06/29 04:26:09;;;;;;;7.28;6.68;;;22.40;99.90;;;;;;2089569;28;20037;-68
2021/06/29 04:27:09;;;;;;;7.55;6.85;;;22.40;99.90;;;;;;2089536;28;20029;-68
2021/06/29 04:28:10;;;;;;;7.80;7.00;;;22.40;99.90;;;;;;2089661;28;20125;-68
2021/06/29 04:29:10;;;;;;;7.97;7.15;;;22.40;99.90;;;;;;2089531;28;20515;-68
2021/06/29 04:30:12;;;;;;;8.82;7.05;;;22.30;99.90;;;;;;2089713;28;20028;-68
2021/06/29 04:31:13;;;;;;;9.18;7.47;;;22.30;99.90;;;;;;2089465;28;20070;-68
2021/06/29 04:32:14;;;;;;;8.18;7.45;;;22.30;99.90;;;;;;2088812;28;20021;-68
2021/06/29 04:33:14;;;;;;;7.63;6.82;;;22.20;99.90;;;;;;2088608;28;20017;-68
2021/06/29 04:34:15;;;;;;;6.78;6.18;;;22.20;99.90;;;;;;2089045;28;20032;-68
2021/06/29 04:35:15;;;;;;;8.85;7.18;;;22.20;99.90;;;;;;2089346;28;20086;-68
2021/06/29 04:36:16;;;;;;;10.10;6.63;;;22.20;99.90;;;;;;2089343;28;20113;-68
2021/06/29 04:37:17;;;;;;;7.22;6.53;;;22.10;99.90;;;;;;2089371;28;20052;-68
2021/06/29 04:38:17;;;;;;;7.20;6.50;;;22.10;99.90;;;;;;2089609;28;20029;-69
2021/06/29 04:39:18;;;;;;;8.05;6.88;;;22.10;99.90;;;;;;2089380;28;20020;-68
2021/06/29 04:40:18;;;;;;;7.45;6.68;;;22.20;99.90;;;;;;2089785;28;20494;-68
2021/06/29 04:41:19;;;;;;;6.40;5.85;;;22.20;99.90;;;;;;2089433;28;20029;-68
2021/06/29 04:42:20;;;;;;;6.30;5.80;;;22.20;99.90;;;;;;2088222;28;20728;-68
2021/06/29 04:43:20;;;;;;;7.57;6.45;;;22.30;99.90;;;;;;2088609;28;20582;-68
2021/06/29 04:44:21;;;;;;;7.13;6.20;;;22.40;99.90;;;;;;2089598;28;20048;-68
2021/06/29 04:45:25;;;;;;;7.03;5.80;;;22.40;99.90;;;;;;2089180;28;20026;-68
2021/06/29 04:46:25;;;;;;;5.97;5.18;;;22.50;99.90;;;;;;2089594;28;20040;-68
2021/06/29 04:47:26;;;;;;;7.85;5.80;;;22.60;99.90;;;;;;2089284;28;20051;-68
2021/06/29 04:48:27;;;;;;;8.00;6.30;;;22.60;99.90;;;;;;2089638;28;20021;-68
2021/06/29 04:49:29;;;;;;;8.57;5.20;;;22.70;99.90;;;;;;2089273;28;20021;-68
2021/06/29 04:50:29;;;;;;;6.70;5.95;;;22.80;99.90;;;;;;2089634;28;20029;-68
2021/06/29 04:51:30;;;;;;;6.68;5.93;;;22.90;99.90;;;;;;2089158;28;20031;-68
2021/06/29 04:52:32;;;;;;;5.80;5.30;;;23.00;99.90;;;;;;2089036;28;20026;-68
2021/06/29 04:53:32;;;;;;;9.40;5.88;;;23.10;99.90;;;;;;2089422;28;20468;-68
2021/06/29 04:54:33;;;;;;;8.73;5.57;;;23.20;99.90;;;;;;2089502;28;20691;-68
2021/06/29 04:55:33;;;;;;;6.10;5.60;;;23.20;99.90;;;;;;2089445;28;20029;-68
2021/06/29 04:56:34;;;;;;;6.18;5.53;;;23.40;99.90;;;;;;2089566;28;20025;-68
2021/06/29 04:57:35;;;;;;;5.75;5.00;;;23.40;99.90;;;;;;2089089;28;20122;-68
2021/06/29 04:58:35;;;;;;;5.30;4.55;;;23.50;99.90;;;;;;2089513;28;20041;-68
2021/06/29 04:59:36;;;;;;;5.57;4.70;;;23.60;99.90;;;;;;2089528;28;20025;-68
2021/06/29 05:00:39;;;;;;;6.72;4.38;;;23.60;99.90;;;;;;2089406;28;20499;-68
2021/06/29 05:01:40;;;;;;;7.22;4.95;;;23.70;99.90;;;;;;2096380;28;20025;-68
2021/06/29 05:02:40;;;;;;;5.10;4.53;;;23.70;99.90;;;;;;2096660;28;20017;-69
2021/06/29 05:03:41;;;;;;;6.20;4.82;;;23.80;99.90;;;;;;2089360;28;20444;-68
2021/06/29 05:04:42;;;;;;;6.60;4.35;;;23.80;99.90;;;;;;2089246;28;20017;-68
2021/06/29 05:05:42;;;;;;;5.20;4.70;;;23.90;99.90;;;;;;2088668;28;20100;-68
2021/06/29 05:06:43;;;;;;;6.10;4.72;;;23.90;99.90;;;;;;2088664;28;20017;-68
2021/06/29 05:07:45;;;;;;;4.28;3.83;;;24.00;99.90;;;;;;2097125;28;20435;-68
2021/06/29 05:08:45;;;;;;;4.55;3.67;;;24.10;99.90;;;;;;2096539;28;20035;-68
2021/06/29 05:09:46;;;;;;;5.10;4.68;;;24.10;99.90;;;;;;2089344;28;20021;-68
2021/06/29 05:10:46;;;;;;;5.22;4.72;;;24.20;99.90;;;;;;2089166;28;20040;-68
2021/06/29 05:11:47;;;;;;;5.40;4.85;;;24.20;99.90;;;;;;2088894;28;20569;-68
2021/06/29 05:12:48;;;;;;;5.38;4.40;;;24.20;99.90;;;;;;2089301;28;20095;-68
2021/06/29 05:13:49;;;;;;;6.47;4.82;;;24.30;99.90;;;;;;2089070;28;20017;-68
2021/06/29 05:14:50;;;;;;;5.57;4.43;;;24.30;99.90;;;;;;2089271;28;20044;-68
2021/06/29 05:15:50;;;;;;;5.32;4.72;;;24.30;99.90;;;;;;2089454;28;20417;-68
2021/06/29 05:16:51;;;;;;;6.80;4.30;;;24.30;99.90;;;;;;2089136;28;20052;-68
2021/06/29 05:17:51;;;;;;;6.30;5.07;;;24.30;99.90;;;;;;2089394;28;20043;-68
2021/06/29 05:18:52;;;;;;;4.85;4.45;;;24.40;99.90;;;;;;2088998;28;20111;-68